Gansville, Louisiana
Current Conditions -  °F | °C
As of 5:35 PM on Saturday 22 Nov 2014 (Local Time) from KRSN Reporting Station
Overcast Overcast  
Wind Chill: 65°   Ceiling: 3200
Heat Index: 65°   Visibility: 10mi
Dew Point: 58°   Wind: 5mph
Humidity: 78%   Direction: 120°ESE
Pressure: 30.01"   Gusts: NA
Location:  32.0727°N, 92.6697°W
Report Text: KRSN 222335Z AUTO 12004KT 10SM OVC032 19/15 A3001 RMK AO2 LTG DSNT SW T01850147
Loading
Personal Weather Stations






























Interactive Weather Map New forecast layout! Learn more

10-Day Weather Forecast

Advertisements
Track Severe Weather on mobile